sensor_id;sensor_type;location;lat;lon;timestamp;P1;durP1;ratioP1;P2;durP2;ratioP2
47287;SDS011;33020;53.008;13.558;2023-06-22T00:01:28;13.75;;;12.35;;
47287;SDS011;33020;53.008;13.558;2023-06-22T00:03:55;15.55;;;13.65;;
47287;SDS011;33020;53.008;13.558;2023-06-22T00:06:22;15.82;;;14.20;;
47287;SDS011;33020;53.008;13.558;2023-06-22T00:08:49;15.38;;;13.77;;
47287;SDS011;33020;53.008;13.558;2023-06-22T00:11:16;14.23;;;12.73;;
47287;SDS011;33020;53.008;13.558;2023-06-22T00:13:44;14.20;;;12.40;;
47287;SDS011;33020;53.008;13.558;2023-06-22T00:16:14;15.90;;;14.20;;
47287;SDS011;33020;53.008;13.558;2023-06-22T00:18:41;17.02;;;14.02;;
47287;SDS011;33020;53.008;13.558;2023-06-22T00:21:13;15.40;;;13.80;;
47287;SDS011;33020;53.008;13.558;2023-06-22T00:23:40;15.98;;;14.27;;
47287;SDS011;33020;53.008;13.558;2023-06-22T00:26:11;17.20;;;15.40;;
47287;SDS011;33020;53.008;13.558;2023-06-22T00:28:43;15.95;;;13.30;;
47287;SDS011;33020;53.008;13.558;2023-06-22T00:31:10;16.42;;;13.77;;
47287;SDS011;33020;53.008;13.558;2023-06-22T00:33:37;15.15;;;13.63;;
47287;SDS011;33020;53.008;13.558;2023-06-22T00:36:04;14.68;;;13.15;;
47287;SDS011;33020;53.008;13.558;2023-06-22T00:38:34;17.40;;;15.13;;
47287;SDS011;33020;53.008;13.558;2023-06-22T00:41:06;16.83;;;15.05;;
47287;SDS011;33020;53.008;13.558;2023-06-22T00:43:34;17.33;;;14.90;;
47287;SDS011;33020;53.008;13.558;2023-06-22T00:46:00;16.27;;;14.60;;
47287;SDS011;33020;53.008;13.558;2023-06-22T00:48:27;16.88;;;15.07;;
47287;SDS011;33020;53.008;13.558;2023-06-22T00:50:54;16.25;;;14.55;;
47287;SDS011;33020;53.008;13.558;2023-06-22T00:53:22;18.13;;;16.15;;
47287;SDS011;33020;53.008;13.558;2023-06-22T00:55:49;16.90;;;14.13;;
47287;SDS011;33020;53.008;13.558;2023-06-22T00:58:18;15.13;;;13.63;;
47287;SDS011;33020;53.008;13.558;2023-06-22T01:00:48;16.05;;;14.38;;
47287;SDS011;33020;53.008;13.558;2023-06-22T01:03:15;15.63;;;13.55;;
47287;SDS011;33020;53.008;13.558;2023-06-22T01:05:43;15.38;;;13.73;;
47287;SDS011;33020;53.008;13.558;2023-06-22T01:08:20;14.02;;;12.63;;
47287;SDS011;33020;53.008;13.558;2023-06-22T01:11:03;14.13;;;12.70;;
47287;SDS011;33020;53.008;13.558;2023-06-22T01:13:44;15.40;;;13.73;;
47287;SDS011;33020;53.008;13.558;2023-06-22T01:16:20;15.35;;;13.75;;
47287;SDS011;33020;53.008;13.558;2023-06-22T01:19:01;15.32;;;13.50;;
47287;SDS011;33020;53.008;13.558;2023-06-22T01:21:48;15.55;;;13.93;;
47287;SDS011;33020;53.008;13.558;2023-06-22T01:29:42;16.15;;;14.45;;
47287;SDS011;33020;53.008;13.558;2023-06-22T01:32:10;15.50;;;13.90;;
47287;SDS011;33020;53.008;13.558;2023-06-22T01:34:38;15.13;;;13.50;;
47287;SDS011;33020;53.008;13.558;2023-06-22T01:37:06;16.95;;;14.35;;
47287;SDS011;33020;53.008;13.558;2023-06-22T01:39:34;15.25;;;13.75;;
47287;SDS011;33020;53.008;13.558;2023-06-22T01:42:02;15.20;;;13.57;;
47287;SDS011;33020;53.008;13.558;2023-06-22T01:44:29;15.95;;;14.35;;
47287;SDS011;33020;53.008;13.558;2023-06-22T01:46:56;16.05;;;14.35;;
47287;SDS011;33020;53.008;13.558;2023-06-22T01:49:23;16.35;;;14.18;;
47287;SDS011;33020;53.008;13.558;2023-06-22T01:51:50;16.98;;;14.75;;
47287;SDS011;33020;53.008;13.558;2023-06-22T01:54:17;14.45;;;12.88;;
47287;SDS011;33020;53.008;13.558;2023-06-22T01:56:44;15.35;;;13.77;;
47287;SDS011;33020;53.008;13.558;2023-06-22T01:59:18;14.95;;;13.15;;
47287;SDS011;33020;53.008;13.558;2023-06-22T02:01:57;15.15;;;13.55;;
47287;SDS011;33020;53.008;13.558;2023-06-22T02:04:36;16.30;;;13.70;;
47287;SDS011;33020;53.008;13.558;2023-06-22T02:07:08;15.10;;;13.50;;
47287;SDS011;33020;53.008;13.558;2023-06-22T02:09:40;16.90;;;14.27;;
47287;SDS011;33020;53.008;13.558;2023-06-22T02:12:11;16.15;;;14.32;;
47287;SDS011;33020;53.008;13.558;2023-06-22T02:14:39;16.15;;;14.45;;
47287;SDS011;33020;53.008;13.558;2023-06-22T02:17:08;15.65;;;13.48;;
47287;SDS011;33020;53.008;13.558;2023-06-22T02:19:36;15.45;;;13.68;;
47287;SDS011;33020;53.008;13.558;2023-06-22T02:22:03;17.52;;;14.55;;
47287;SDS011;33020;53.008;13.558;2023-06-22T02:24:30;15.80;;;13.90;;
47287;SDS011;33020;53.008;13.558;2023-06-22T02:26:59;15.75;;;13.73;;
47287;SDS011;33020;53.008;13.558;2023-06-22T02:29:27;15.80;;;14.20;;
47287;SDS011;33020;53.008;13.558;2023-06-22T02:31:55;14.98;;;13.38;;
47287;SDS011;33020;53.008;13.558;2023-06-22T02:34:21;15.50;;;13.35;;
47287;SDS011;33020;53.008;13.558;2023-06-22T02:36:49;15.50;;;13.77;;
47287;SDS011;33020;53.008;13.558;2023-06-22T02:39:23;15.27;;;13.68;;
47287;SDS011;33020;53.008;13.558;2023-06-22T02:41:52;15.15;;;13.57;;
47287;SDS011;33020;53.008;13.558;2023-06-22T02:44:19;15.20;;;13.60;;
47287;SDS011;33020;53.008;13.558;2023-06-22T02:46:47;16.45;;;14.27;;
47287;SDS011;33020;53.008;13.558;2023-06-22T02:49:14;17.05;;;13.82;;
47287;SDS011;33020;53.008;13.558;2023-06-22T02:51:44;16.02;;;13.60;;
47287;SDS011;33020;53.008;13.558;2023-06-22T02:54:12;15.32;;;13.85;;
47287;SDS011;33020;53.008;13.558;2023-06-22T02:56:39;14.27;;;12.85;;
47287;SDS011;33020;53.008;13.558;2023-06-22T02:59:07;15.68;;;14.07;;
47287;SDS011;33020;53.008;13.558;2023-06-22T03:01:34;16.77;;;15.00;;
47287;SDS011;33020;53.008;13.558;2023-06-22T03:04:07;16.57;;;14.80;;
47287;SDS011;33020;53.008;13.558;2023-06-22T03:06:35;15.52;;;13.85;;
47287;SDS011;33020;53.008;13.558;2023-06-22T03:09:03;15.65;;;13.95;;
47287;SDS011;33020;53.008;13.558;2023-06-22T03:11:31;15.85;;;14.00;;
47287;SDS011;33020;53.008;13.558;2023-06-22T03:13:59;16.08;;;14.38;;
47287;SDS011;33020;53.008;13.558;2023-06-22T03:16:27;15.00;;;13.48;;
47287;SDS011;33020;53.008;13.558;2023-06-22T03:18:54;16.30;;;14.60;;
47287;SDS011;33020;53.008;13.558;2023-06-22T03:21:22;15.95;;;14.27;;
47287;SDS011;33020;53.008;13.558;2023-06-22T03:23:49;14.23;;;12.65;;
47287;SDS011;33020;53.008;13.558;2023-06-22T03:26:16;17.30;;;14.82;;
47287;SDS011;33020;53.008;13.558;2023-06-22T03:28:44;16.27;;;14.38;;
47287;SDS011;33020;53.008;13.558;2023-06-22T03:31:11;15.75;;;13.82;;
47287;SDS011;33020;53.008;13.558;2023-06-22T03:33:38;16.20;;;14.50;;
47287;SDS011;33020;53.008;13.558;2023-06-22T03:36:05;14.48;;;12.98;;
47287;SDS011;33020;53.008;13.558;2023-06-22T03:38:32;15.43;;;13.80;;
47287;SDS011;33020;53.008;13.558;2023-06-22T03:40:59;15.02;;;13.52;;
47287;SDS011;33020;53.008;13.558;2023-06-22T03:43:26;15.95;;;13.73;;
47287;SDS011;33020;53.008;13.558;2023-06-22T03:45:53;16.55;;;14.38;;
47287;SDS011;33020;53.008;13.558;2023-06-22T03:48:20;15.25;;;13.65;;
47287;SDS011;33020;53.008;13.558;2023-06-22T03:50:47;15.02;;;13.38;;
47287;SDS011;33020;53.008;13.558;2023-06-22T03:53:14;15.45;;;13.85;;
47287;SDS011;33020;53.008;13.558;2023-06-22T03:55:47;15.68;;;13.95;;
47287;SDS011;33020;53.008;13.558;2023-06-22T03:58:16;14.95;;;13.43;;
47287;SDS011;33020;53.008;13.558;2023-06-22T04:00:52;15.95;;;14.25;;
47287;SDS011;33020;53.008;13.558;2023-06-22T04:03:19;15.50;;;13.95;;
47287;SDS011;33020;53.008;13.558;2023-06-22T04:05:47;15.68;;;13.98;;
47287;SDS011;33020;53.008;13.558;2023-06-22T04:08:15;16.52;;;14.68;;
47287;SDS011;33020;53.008;13.558;2023-06-22T04:10:42;15.82;;;13.48;;
47287;SDS011;33020;53.008;13.558;2023-06-22T04:13:09;16.00;;;13.90;;
47287;SDS011;33020;53.008;13.558;2023-06-22T04:15:36;14.48;;;12.98;;
47287;SDS011;33020;53.008;13.558;2023-06-22T04:18:03;17.52;;;14.48;;
47287;SDS011;33020;53.008;13.558;2023-06-22T04:20:31;16.00;;;14.38;;
47287;SDS011;33020;53.008;13.558;2023-06-22T04:22:58;15.63;;;13.90;;
47287;SDS011;33020;53.008;13.558;2023-06-22T04:25:25;15.57;;;13.82;;
47287;SDS011;33020;53.008;13.558;2023-06-22T04:27:53;16.65;;;14.95;;
47287;SDS011;33020;53.008;13.558;2023-06-22T04:30:20;14.75;;;13.25;;
47287;SDS011;33020;53.008;13.558;2023-06-22T04:32:47;15.45;;;13.75;;
47287;SDS011;33020;53.008;13.558;2023-06-22T04:35:24;15.27;;;13.68;;
47287;SDS011;33020;53.008;13.558;2023-06-22T04:37:52;15.65;;;13.98;;
47287;SDS011;33020;53.008;13.558;2023-06-22T04:40:22;15.05;;;13.45;;
47287;SDS011;33020;53.008;13.558;2023-06-22T04:42:49;16.13;;;13.88;;
47287;SDS011;33020;53.008;13.558;2023-06-22T04:45:19;16.10;;;14.25;;
47287;SDS011;33020;53.008;13.558;2023-06-22T04:47:47;16.48;;;14.77;;
47287;SDS011;33020;53.008;13.558;2023-06-22T04:50:14;16.25;;;14.25;;
47287;SDS011;33020;53.008;13.558;2023-06-22T04:52:43;15.60;;;13.52;;
47287;SDS011;33020;53.008;13.558;2023-06-22T04:55:12;15.05;;;13.35;;
47287;SDS011;33020;53.008;13.558;2023-06-22T04:57:41;15.85;;;14.10;;
47287;SDS011;33020;53.008;13.558;2023-06-22T05:00:11;15.10;;;13.50;;
47287;SDS011;33020;53.008;13.558;2023-06-22T05:02:39;15.05;;;13.02;;
47287;SDS011;33020;53.008;13.558;2023-06-22T05:05:06;14.75;;;13.18;;
47287;SDS011;33020;53.008;13.558;2023-06-22T05:07:34;14.00;;;12.60;;
47287;SDS011;33020;53.008;13.558;2023-06-22T05:10:02;14.57;;;13.07;;
47287;SDS011;33020;53.008;13.558;2023-06-22T05:12:29;14.75;;;13.25;;
47287;SDS011;33020;53.008;13.558;2023-06-22T05:14:56;15.35;;;13.68;;
47287;SDS011;33020;53.008;13.558;2023-06-22T05:17:23;15.23;;;13.63;;
47287;SDS011;33020;53.008;13.558;2023-06-22T05:19:51;14.15;;;12.60;;
47287;SDS011;33020;53.008;13.558;2023-06-22T05:22:18;15.77;;;12.75;;
47287;SDS011;33020;53.008;13.558;2023-06-22T05:24:45;12.77;;;11.48;;
47287;SDS011;33020;53.008;13.558;2023-06-22T05:27:12;14.70;;;12.00;;
47287;SDS011;33020;53.008;13.558;2023-06-22T05:29:39;12.57;;;11.32;;
47287;SDS011;33020;53.008;13.558;2023-06-22T05:32:06;13.38;;;11.98;;
47287;SDS011;33020;53.008;13.558;2023-06-22T05:34:33;13.48;;;12.18;;
47287;SDS011;33020;53.008;13.558;2023-06-22T05:37:01;13.10;;;11.70;;
47287;SDS011;33020;53.008;13.558;2023-06-22T05:39:28;12.98;;;11.77;;
47287;SDS011;33020;53.008;13.558;2023-06-22T05:41:55;12.55;;;11.35;;
47287;SDS011;33020;53.008;13.558;2023-06-22T05:44:22;12.07;;;10.40;;
47287;SDS011;33020;53.008;13.558;2023-06-22T05:46:49;11.02;;;10.02;;
47287;SDS011;33020;53.008;13.558;2023-06-22T05:49:16;10.57;;;9.65;;
47287;SDS011;33020;53.008;13.558;2023-06-22T05:51:43;8.43;;;7.63;;
47287;SDS011;33020;53.008;13.558;2023-06-22T05:54:10;8.77;;;7.50;;
47287;SDS011;33020;53.008;13.558;2023-06-22T05:56:41;7.82;;;6.95;;
47287;SDS011;33020;53.008;13.558;2023-06-22T05:59:08;7.28;;;6.57;;
47287;SDS011;33020;53.008;13.558;2023-06-22T06:01:37;5.82;;;5.30;;
47287;SDS011;33020;53.008;13.558;2023-06-22T06:04:06;5.18;;;4.25;;
47287;SDS011;33020;53.008;13.558;2023-06-22T06:06:36;5.82;;;5.32;;
47287;SDS011;33020;53.008;13.558;2023-06-22T06:09:04;7.10;;;6.43;;
47287;SDS011;33020;53.008;13.558;2023-06-22T06:11:31;8.05;;;5.13;;
47287;SDS011;33020;53.008;13.558;2023-06-22T06:13:58;5.32;;;4.82;;
47287;SDS011;33020;53.008;13.558;2023-06-22T06:16:25;6.07;;;5.18;;
47287;SDS011;33020;53.008;13.558;2023-06-22T06:18:52;5.30;;;4.50;;
47287;SDS011;33020;53.008;13.558;2023-06-22T06:21:21;4.93;;;4.53;;
47287;SDS011;33020;53.008;13.558;2023-06-22T06:23:48;4.40;;;4.00;;
47287;SDS011;33020;53.008;13.558;2023-06-22T06:26:15;5.53;;;4.50;;
47287;SDS011;33020;53.008;13.558;2023-06-22T06:28:55;4.57;;;4.18;;
47287;SDS011;33020;53.008;13.558;2023-06-22T06:31:22;6.40;;;4.72;;
47287;SDS011;33020;53.008;13.558;2023-06-22T06:33:50;5.25;;;4.38;;
47287;SDS011;33020;53.008;13.558;2023-06-22T06:36:16;18.00;;;6.03;;
47287;SDS011;33020;53.008;13.558;2023-06-22T06:38:44;5.38;;;4.65;;
47287;SDS011;33020;53.008;13.558;2023-06-22T06:41:11;4.93;;;4.43;;
47287;SDS011;33020;53.008;13.558;2023-06-22T06:43:38;6.40;;;4.43;;
47287;SDS011;33020;53.008;13.558;2023-06-22T06:46:05;5.88;;;4.13;;
47287;SDS011;33020;53.008;13.558;2023-06-22T06:48:32;5.43;;;4.43;;
47287;SDS011;33020;53.008;13.558;2023-06-22T06:50:58;6.05;;;4.80;;
47287;SDS011;33020;53.008;13.558;2023-06-22T06:53:26;5.68;;;4.43;;
47287;SDS011;33020;53.008;13.558;2023-06-22T06:55:53;4.15;;;3.75;;
47287;SDS011;33020;53.008;13.558;2023-06-22T06:58:20;4.80;;;4.30;;
47287;SDS011;33020;53.008;13.558;2023-06-22T07:00:49;4.18;;;3.78;;
47287;SDS011;33020;53.008;13.558;2023-06-22T07:03:16;5.32;;;4.18;;
47287;SDS011;33020;53.008;13.558;2023-06-22T07:05:43;3.92;;;3.53;;
47287;SDS011;33020;53.008;13.558;2023-06-22T07:08:10;3.50;;;3.20;;
47287;SDS011;33020;53.008;13.558;2023-06-22T07:10:37;5.22;;;4.35;;
47287;SDS011;33020;53.008;13.558;2023-06-22T07:13:04;5.70;;;4.03;;
47287;SDS011;33020;53.008;13.558;2023-06-22T07:15:31;9.35;;;4.35;;
47287;SDS011;33020;53.008;13.558;2023-06-22T07:17:58;4.38;;;3.97;;
47287;SDS011;33020;53.008;13.558;2023-06-22T07:20:25;4.20;;;3.80;;
47287;SDS011;33020;53.008;13.558;2023-06-22T07:22:52;5.53;;;4.30;;
47287;SDS011;33020;53.008;13.558;2023-06-22T07:25:19;5.78;;;3.58;;
47287;SDS011;33020;53.008;13.558;2023-06-22T07:27:56;4.07;;;3.67;;
47287;SDS011;33020;53.008;13.558;2023-06-22T07:30:24;4.45;;;4.05;;
47287;SDS011;33020;53.008;13.558;2023-06-22T07:32:51;4.13;;;3.72;;
47287;SDS011;33020;53.008;13.558;2023-06-22T07:35:18;20.58;;;5.78;;
47287;SDS011;33020;53.008;13.558;2023-06-22T07:37:46;4.68;;;3.25;;
47287;SDS011;33020;53.008;13.558;2023-06-22T07:40:12;4.70;;;3.28;;
47287;SDS011;33020;53.008;13.558;2023-06-22T07:42:40;7.30;;;4.05;;
47287;SDS011;33020;53.008;13.558;2023-06-22T07:45:07;4.60;;;3.50;;
47287;SDS011;33020;53.008;13.558;2023-06-22T07:47:35;6.00;;;3.38;;
47287;SDS011;33020;53.008;13.558;2023-06-22T07:50:02;4.10;;;3.70;;
47287;SDS011;33020;53.008;13.558;2023-06-22T07:52:30;3.63;;;3.33;;
47287;SDS011;33020;53.008;13.558;2023-06-22T07:54:57;4.22;;;3.40;;
47287;SDS011;33020;53.008;13.558;2023-06-22T07:57:24;4.35;;;3.53;;
47287;SDS011;33020;53.008;13.558;2023-06-22T08:00:00;4.43;;;3.80;;
47287;SDS011;33020;53.008;13.558;2023-06-22T08:02:30;5.57;;;3.70;;
47287;SDS011;33020;53.008;13.558;2023-06-22T08:04:57;3.88;;;3.47;;
47287;SDS011;33020;53.008;13.558;2023-06-22T08:07:36;5.50;;;3.90;;
47287;SDS011;33020;53.008;13.558;2023-06-22T08:10:04;4.93;;;3.47;;
47287;SDS011;33020;53.008;13.558;2023-06-22T08:12:32;4.05;;;3.67;;
47287;SDS011;33020;53.008;13.558;2023-06-22T08:14:59;5.63;;;4.30;;
47287;SDS011;33020;53.008;13.558;2023-06-22T08:17:26;5.03;;;3.55;;
47287;SDS011;33020;53.008;13.558;2023-06-22T08:19:53;3.90;;;3.50;;
47287;SDS011;33020;53.008;13.558;2023-06-22T08:22:20;4.10;;;3.45;;
47287;SDS011;33020;53.008;13.558;2023-06-22T08:24:47;3.72;;;3.25;;
47287;SDS011;33020;53.008;13.558;2023-06-22T08:27:14;7.05;;;4.35;;
47287;SDS011;33020;53.008;13.558;2023-06-22T08:32:14;4.07;;;3.42;;
47287;SDS011;33020;53.008;13.558;2023-06-22T08:34:41;4.35;;;3.10;;
47287;SDS011;33020;53.008;13.558;2023-06-22T08:37:09;4.28;;;3.72;;
47287;SDS011;33020;53.008;13.558;2023-06-22T08:39:35;4.15;;;3.20;;
47287;SDS011;33020;53.008;13.558;2023-06-22T08:42:03;4.65;;;3.15;;
47287;SDS011;33020;53.008;13.558;2023-06-22T08:44:30;4.80;;;3.78;;
47287;SDS011;33020;53.008;13.558;2023-06-22T08:46:57;4.35;;;3.45;;
47287;SDS011;33020;53.008;13.558;2023-06-22T08:49:24;4.22;;;3.83;;
47287;SDS011;33020;53.008;13.558;2023-06-22T08:51:51;4.15;;;3.78;;
47287;SDS011;33020;53.008;13.558;2023-06-22T08:54:20;4.50;;;4.10;;
47287;SDS011;33020;53.008;13.558;2023-06-22T08:56:47;4.93;;;3.72;;
47287;SDS011;33020;53.008;13.558;2023-06-22T08:59:13;4.45;;;3.65;;
47287;SDS011;33020;53.008;13.558;2023-06-22T09:01:40;26.33;;;6.00;;
47287;SDS011;33020;53.008;13.558;2023-06-22T09:04:12;4.93;;;3.85;;
47287;SDS011;33020;53.008;13.558;2023-06-22T09:06:39;5.22;;;3.25;;
47287;SDS011;33020;53.008;13.558;2023-06-22T09:09:15;3.88;;;3.20;;
47287;SDS011;33020;53.008;13.558;2023-06-22T09:11:43;4.05;;;3.00;;
47287;SDS011;33020;53.008;13.558;2023-06-22T09:14:10;4.13;;;3.33;;
47287;SDS011;33020;53.008;13.558;2023-06-22T09:16:37;5.03;;;3.53;;
47287;SDS011;33020;53.008;13.558;2023-06-22T09:19:04;3.88;;;3.40;;
47287;SDS011;33020;53.008;13.558;2023-06-22T09:21:31;3.72;;;3.30;;
47287;SDS011;33020;53.008;13.558;2023-06-22T09:24:00;3.47;;;3.17;;
47287;SDS011;33020;53.008;13.558;2023-06-22T09:26:27;3.85;;;3.17;;
47287;SDS011;33020;53.008;13.558;2023-06-22T09:28:54;4.32;;;3.15;;
47287;SDS011;33020;53.008;13.558;2023-06-22T09:31:21;3.75;;;3.30;;
47287;SDS011;33020;53.008;13.558;2023-06-22T09:33:54;3.53;;;3.05;;
47287;SDS011;33020;53.008;13.558;2023-06-22T09:36:21;3.78;;;3.45;;
47287;SDS011;33020;53.008;13.558;2023-06-22T09:38:48;3.60;;;3.30;;
47287;SDS011;33020;53.008;13.558;2023-06-22T09:41:22;4.70;;;3.50;;
47287;SDS011;33020;53.008;13.558;2023-06-22T09:43:49;5.47;;;4.25;;
47287;SDS011;33020;53.008;13.558;2023-06-22T09:46:17;5.45;;;3.80;;
47287;SDS011;33020;53.008;13.558;2023-06-22T09:48:44;5.05;;;3.78;;
47287;SDS011;33020;53.008;13.558;2023-06-22T09:51:11;5.93;;;3.97;;
47287;SDS011;33020;53.008;13.558;2023-06-22T09:53:38;4.40;;;3.67;;
47287;SDS011;33020;53.008;13.558;2023-06-22T09:56:05;4.10;;;3.70;;
47287;SDS011;33020;53.008;13.558;2023-06-22T09:58:32;10.05;;;4.28;;
47287;SDS011;33020;53.008;13.558;2023-06-22T10:00:59;18.52;;;5.15;;
47287;SDS011;33020;53.008;13.558;2023-06-22T10:03:26;6.18;;;3.95;;
47287;SDS011;33020;53.008;13.558;2023-06-22T10:05:53;8.02;;;4.50;;
47287;SDS011;33020;53.008;13.558;2023-06-22T10:08:20;4.22;;;3.83;;
47287;SDS011;33020;53.008;13.558;2023-06-22T10:10:47;4.70;;;4.03;;
47287;SDS011;33020;53.008;13.558;2023-06-22T10:13:14;4.22;;;3.78;;
47287;SDS011;33020;53.008;13.558;2023-06-22T10:15:41;4.90;;;4.43;;
47287;SDS011;33020;53.008;13.558;2023-06-22T10:18:09;4.55;;;4.07;;
47287;SDS011;33020;53.008;13.558;2023-06-22T10:20:36;7.60;;;4.95;;
47287;SDS011;33020;53.008;13.558;2023-06-22T10:23:03;7.68;;;4.97;;
47287;SDS011;33020;53.008;13.558;2023-06-22T10:25:30;4.93;;;4.50;;
47287;SDS011;33020;53.008;13.558;2023-06-22T10:27:59;4.57;;;4.18;;
47287;SDS011;33020;53.008;13.558;2023-06-22T10:30:26;4.45;;;4.05;;
47287;SDS011;33020;53.008;13.558;2023-06-22T10:32:53;5.43;;;4.63;;
47287;SDS011;33020;53.008;13.558;2023-06-22T10:35:20;4.47;;;4.00;;
47287;SDS011;33020;53.008;13.558;2023-06-22T10:37:48;4.65;;;3.97;;
47287;SDS011;33020;53.008;13.558;2023-06-22T10:40:15;4.80;;;4.40;;
47287;SDS011;33020;53.008;13.558;2023-06-22T10:42:43;5.13;;;4.47;;
47287;SDS011;33020;53.008;13.558;2023-06-22T10:45:13;4.55;;;3.88;;
47287;SDS011;33020;53.008;13.558;2023-06-22T10:47:40;4.68;;;4.28;;
47287;SDS011;33020;53.008;13.558;2023-06-22T10:50:09;6.72;;;4.50;;
47287;SDS011;33020;53.008;13.558;2023-06-22T10:52:36;5.05;;;4.55;;
47287;SDS011;33020;53.008;13.558;2023-06-22T10:55:03;4.75;;;4.35;;
47287;SDS011;33020;53.008;13.558;2023-06-22T10:57:31;4.60;;;3.88;;
47287;SDS011;33020;53.008;13.558;2023-06-22T10:59:57;4.70;;;4.30;;
47287;SDS011;33020;53.008;13.558;2023-06-22T11:02:24;4.53;;;4.13;;
47287;SDS011;33020;53.008;13.558;2023-06-22T11:04:52;5.10;;;4.60;;
47287;SDS011;33020;53.008;13.558;2023-06-22T11:07:19;5.18;;;4.68;;
47287;SDS011;33020;53.008;13.558;2023-06-22T11:09:46;4.60;;;4.20;;
47287;SDS011;33020;53.008;13.558;2023-06-22T11:12:12;6.43;;;4.22;;
47287;SDS011;33020;53.008;13.558;2023-06-22T11:14:42;4.60;;;4.20;;
47287;SDS011;33020;53.008;13.558;2023-06-22T11:17:09;4.90;;;4.50;;
47287;SDS011;33020;53.008;13.558;2023-06-22T11:19:35;5.45;;;4.93;;
47287;SDS011;33020;53.008;13.558;2023-06-22T11:22:03;4.80;;;4.40;;
47287;SDS011;33020;53.008;13.558;2023-06-22T11:24:30;5.13;;;4.60;;
47287;SDS011;33020;53.008;13.558;2023-06-22T11:26:57;5.20;;;4.75;;
47287;SDS011;33020;53.008;13.558;2023-06-22T11:29:25;5.18;;;4.68;;
47287;SDS011;33020;53.008;13.558;2023-06-22T11:32:02;4.47;;;4.07;;
47287;SDS011;33020;53.008;13.558;2023-06-22T11:34:29;9.77;;;5.25;;
47287;SDS011;33020;53.008;13.558;2023-06-22T11:36:56;5.22;;;4.50;;
47287;SDS011;33020;53.008;13.558;2023-06-22T11:39:23;5.22;;;4.72;;
47287;SDS011;33020;53.008;13.558;2023-06-22T11:41:59;5.85;;;4.75;;
47287;SDS011;33020;53.008;13.558;2023-06-22T11:44:26;4.90;;;4.32;;
47287;SDS011;33020;53.008;13.558;2023-06-22T11:46:53;4.82;;;4.43;;
47287;SDS011;33020;53.008;13.558;2023-06-22T11:49:20;5.22;;;4.72;;
47287;SDS011;33020;53.008;13.558;2023-06-22T11:51:46;5.47;;;4.88;;
47287;SDS011;33020;53.008;13.558;2023-06-22T11:54:13;5.72;;;5.22;;
47287;SDS011;33020;53.008;13.558;2023-06-22T11:56:40;4.82;;;4.43;;
47287;SDS011;33020;53.008;13.558;2023-06-22T11:59:07;5.05;;;4.57;;
47287;SDS011;33020;53.008;13.558;2023-06-22T12:01:35;6.00;;;4.93;;
47287;SDS011;33020;53.008;13.558;2023-06-22T12:04:01;5.95;;;5.40;;
47287;SDS011;33020;53.008;13.558;2023-06-22T12:06:32;4.93;;;4.43;;
47287;SDS011;33020;53.008;13.558;2023-06-22T12:08:59;5.20;;;4.47;;
47287;SDS011;33020;53.008;13.558;2023-06-22T12:11:26;5.65;;;5.15;;
47287;SDS011;33020;53.008;13.558;2023-06-22T12:13:54;6.78;;;4.50;;
47287;SDS011;33020;53.008;13.558;2023-06-22T12:16:21;5.85;;;5.22;;
47287;SDS011;33020;53.008;13.558;2023-06-22T12:18:48;10.98;;;5.18;;
47287;SDS011;33020;53.008;13.558;2023-06-22T12:21:15;5.28;;;4.78;;
47287;SDS011;33020;53.008;13.558;2023-06-22T12:23:42;4.75;;;4.32;;
47287;SDS011;33020;53.008;13.558;2023-06-22T12:26:09;5.13;;;4.70;;
47287;SDS011;33020;53.008;13.558;2023-06-22T12:28:36;5.28;;;4.60;;
47287;SDS011;33020;53.008;13.558;2023-06-22T12:31:03;7.05;;;5.47;;
47287;SDS011;33020;53.008;13.558;2023-06-22T12:33:30;5.28;;;4.80;;
47287;SDS011;33020;53.008;13.558;2023-06-22T12:35:57;5.32;;;4.82;;
47287;SDS011;33020;53.008;13.558;2023-06-22T12:38:24;4.78;;;4.35;;
47287;SDS011;33020;53.008;13.558;2023-06-22T12:40:52;5.60;;;5.00;;
47287;SDS011;33020;53.008;13.558;2023-06-22T12:43:19;5.07;;;4.55;;
47287;SDS011;33020;53.008;13.558;2023-06-22T12:45:46;5.07;;;4.65;;
47287;SDS011;33020;53.008;13.558;2023-06-22T12:48:13;5.75;;;5.25;;
47287;SDS011;33020;53.008;13.558;2023-06-22T12:50:40;5.60;;;5.10;;
47287;SDS011;33020;53.008;13.558;2023-06-22T12:53:07;5.60;;;5.10;;
47287;SDS011;33020;53.008;13.558;2023-06-22T12:55:34;5.13;;;4.63;;
47287;SDS011;33020;53.008;13.558;2023-06-22T12:58:01;4.85;;;4.45;;
47287;SDS011;33020;53.008;13.558;2023-06-22T13:00:28;5.03;;;4.53;;
47287;SDS011;33020;53.008;13.558;2023-06-22T13:02:56;5.32;;;4.82;;
47287;SDS011;33020;53.008;13.558;2023-06-22T13:05:23;5.57;;;4.97;;
47287;SDS011;33020;53.008;13.558;2023-06-22T13:07:50;5.55;;;5.05;;
47287;SDS011;33020;53.008;13.558;2023-06-22T13:10:17;5.28;;;4.78;;
47287;SDS011;33020;53.008;13.558;2023-06-22T13:12:44;6.85;;;5.00;;
47287;SDS011;33020;53.008;13.558;2023-06-22T13:15:11;9.88;;;5.20;;
47287;SDS011;33020;53.008;13.558;2023-06-22T13:17:38;5.47;;;5.00;;
47287;SDS011;33020;53.008;13.558;2023-06-22T13:20:05;6.35;;;5.18;;
47287;SDS011;33020;53.008;13.558;2023-06-22T13:22:33;4.80;;;4.40;;
47287;SDS011;33020;53.008;13.558;2023-06-22T13:25:07;5.00;;;4.60;;
47287;SDS011;33020;53.008;13.558;2023-06-22T13:27:34;5.40;;;4.90;;
47287;SDS011;33020;53.008;13.558;2023-06-22T13:30:01;5.20;;;4.70;;
47287;SDS011;33020;53.008;13.558;2023-06-22T13:32:29;5.13;;;4.72;;
47287;SDS011;33020;53.008;13.558;2023-06-22T13:34:57;6.85;;;5.07;;
47287;SDS011;33020;53.008;13.558;2023-06-22T13:37:25;5.57;;;5.15;;
47287;SDS011;33020;53.008;13.558;2023-06-22T13:39:52;5.90;;;4.72;;
47287;SDS011;33020;53.008;13.558;2023-06-22T13:42:19;6.30;;;5.70;;
47287;SDS011;33020;53.008;13.558;2023-06-22T13:44:46;5.60;;;5.03;;
47287;SDS011;33020;53.008;13.558;2023-06-22T13:47:13;5.95;;;5.18;;
47287;SDS011;33020;53.008;13.558;2023-06-22T13:49:40;5.22;;;4.72;;
47287;SDS011;33020;53.008;13.558;2023-06-22T13:52:07;4.93;;;4.53;;
47287;SDS011;33020;53.008;13.558;2023-06-22T13:54:36;5.68;;;5.18;;
47287;SDS011;33020;53.008;13.558;2023-06-22T13:57:03;5.90;;;5.40;;
47287;SDS011;33020;53.008;13.558;2023-06-22T13:59:31;5.47;;;4.80;;
47287;SDS011;33020;53.008;13.558;2023-06-22T14:01:58;4.85;;;4.45;;
47287;SDS011;33020;53.008;13.558;2023-06-22T14:04:25;5.20;;;4.80;;
47287;SDS011;33020;53.008;13.558;2023-06-22T14:06:52;5.20;;;4.70;;
47287;SDS011;33020;53.008;13.558;2023-06-22T14:09:22;5.53;;;5.03;;
47287;SDS011;33020;53.008;13.558;2023-06-22T14:11:49;5.10;;;4.60;;
47287;SDS011;33020;53.008;13.558;2023-06-22T14:14:16;6.40;;;5.18;;
47287;SDS011;33020;53.008;13.558;2023-06-22T14:16:43;5.40;;;4.90;;
47287;SDS011;33020;53.008;13.558;2023-06-22T14:19:10;5.47;;;4.90;;
47287;SDS011;33020;53.008;13.558;2023-06-22T14:21:37;4.80;;;4.40;;
47287;SDS011;33020;53.008;13.558;2023-06-22T14:24:04;5.28;;;4.75;;
47287;SDS011;33020;53.008;13.558;2023-06-22T14:26:31;4.75;;;4.35;;
47287;SDS011;33020;53.008;13.558;2023-06-22T14:28:58;5.88;;;5.18;;
47287;SDS011;33020;53.008;13.558;2023-06-22T14:31:25;5.97;;;5.40;;
47287;SDS011;33020;53.008;13.558;2023-06-22T14:33:52;5.47;;;4.97;;
47287;SDS011;33020;53.008;13.558;2023-06-22T14:36:19;5.53;;;5.03;;